Hendricks, West Virginia
Current Conditions -  °F | °C
As of 8:51 AM on Wednesday 22 Oct 2014 (Local Time) from KEKN Reporting Station
Light Rain Light Rain  
Wind Chill: 42°   Ceiling: 800
Heat Index: 45°   Visibility: 2mi
Dew Point: 44°   Wind: 6mph
Humidity: 97%   Direction: 340°NNW
Pressure: 30.09"   Gusts: NA
Location:  39.08°N, 79.63°W
Report Text: KEKN 221251Z AUTO 34005KT 2SM -RA BR OVC008 07/07 A3009 RMK AO2 RAB04E13B48 SLP201 P0001 T00720067 TSNO
Loading
Personal Weather Stations






























Interactive Weather Map
Tropical Storm Tracking
New forecast layout! Learn more

10-Day Weather Forecast

Advertisements
Track Severe Weather on mobile